Pilot No 5 — WDC3840 — position and weather

sailwx.info

Track history (hours):
 
Tides and Currents Weather Stations Pressure Air Temp Water Temp Dewpoint Dewpoint Depression Visibility Wind Speed Wind Dir Waves Ship Positions

Pilot No 5

Owner: P E P INC, FT LAUDERDALE, FL. More information available from US FCC via Universal Licensing System and Coast Guard Vessel Documentation Center.

Last reported at 2017-Mar-30 14:33 UTC. Time now 2017-Mar-30 14:50 UTC.
Position N 26°06' W 080°07'.

Length 6 m.

Type: Pilot. MMSI: 367015090.

Date/timePositionNaut miles runAvg speedWind from/ knotsBaromVisibWave heightAir tempDewpointWater temp
2017-Mar-30 14:33N 26°06' W 080°07'0 0.0
2017-Mar-30 13:33N 26°06' W 080°07'0 0.0
2017-Mar-30 12:09N 26°06' W 080°07'0 0.0
2017-Mar-30 11:12N 26°06' W 080°07'1 1.4
2017-Mar-30 10:33N 26°06' W 080°07'0 0.4
2017-Mar-30 09:33N 26°06' W 080°06'1 1.0
2017-Mar-30 08:33N 26°06' W 080°07'1 0.1
2017-Mar-29 23:33N 26°06' W 080°06'1 0.8
2017-Mar-29 22:33N 26°06' W 080°06'1 1.2
2017-Mar-29 21:33N 26°06' W 080°07'0 0.2
2017-Mar-29 20:33N 26°06' W 080°07'1 0.1
2017-Mar-29 14:03N 26°06' W 080°07'0 0.0
2017-Mar-29 13:32N 26°06' W 080°07'0 0.0
2017-Mar-29 11:33N 26°06' W 080°07'1 0.9
2017-Mar-29 10:34N 26°05' W 080°07'0 0.4
2017-Mar-29 09:33N 26°06' W 080°07'1 0.4
2017-Mar-29 08:14N 26°06' W 080°07'2 3.1
2017-Mar-29 07:34N 26°04' W 080°07'1 1.1
2017-Mar-29 06:33N 26°05' W 080°07'1 1.0
2017-Mar-29 05:31N 26°06' W 080°07'3 3.1
2017-Mar-29 04:34N 26°05' W 080°04'3 0.3
2017-Mar-28 17:08N 26°06' W 080°07'0 0.0
2017-Mar-28 16:33N 26°06' W 080°07'0 0.0
2017-Mar-28 11:08N 26°06' W 080°07'0 0.0
2017-Mar-28 04:04N 26°06' W 080°07'2 3.5
2017-Mar-28 03:34N 26°05' W 080°06'1 1.0
2017-Mar-28 02:33N 26°06' W 080°07'1 1.0
2017-Mar-28 01:34N 26°06' W 080°06'2 1.8
2017-Mar-28 00:33N 26°06' W 080°07'0 0.0
2017-Mar-27 23:33N 26°06' W 080°07'1 1.2
2017-Mar-27 22:33N 26°06' W 080°06'1 0.8
2017-Mar-27 21:33N 26°06' W 080°05'2 1.6
2017-Mar-27 20:33N 26°05' W 080°07'1 0.6
2017-Mar-27 19:33N 26°06' W 080°07'0 0.0
2017-Mar-27 16:33N 26°06' W 080°07'2 1.7
2017-Mar-27 15:33N 26°05' W 080°05'2 1.9
2017-Mar-27 14:33N 26°06' W 080°07'0 0.5
2017-Mar-27 13:34N 26°06' W 080°07'3 2.6
2017-Mar-27 12:33N 26°05' W 080°04'3 2.6
2017-Mar-27 11:33N 26°06' W 080°07'3 3.2
2017-Mar-27 10:33N 26°05' W 080°04'1 0.6
2017-Mar-27 09:33N 26°05' W 080°04'1 1.5
2017-Mar-27 08:34N 26°05' W 080°03'4 4.3
2017-Mar-27 07:33N 26°06' W 080°07'0 0.2
2017-Mar-27 06:33N 26°06' W 080°07'0 0.2
2017-Mar-27 05:33N 26°06' W 080°07'3 2.7
2017-Mar-27 04:33N 26°06' W 080°04'3 2.6
2017-Mar-27 03:33N 26°04' W 080°07'1 0.3
2017-Mar-26 22:33N 26°06' W 080°06'1 1.0
2017-Mar-26 21:33N 26°05' W 080°07'1 1.1
2017-Mar-26 20:33N 26°06' W 080°06'1 1.1
2017-Mar-26 19:33N 26°06' W 080°07'0 0.1
2017-Mar-26 18:23N 26°06' W 080°07'1 0.9
2017-Mar-26 17:33N 26°06' W 080°07'0 0.2
2017-Mar-26 16:33N 26°05' W 080°07'1 0.5
2017-Mar-26 15:33N 26°05' W 080°07'1 1.0
2017-Mar-26 14:18N 26°06' W 080°07'1 0.8
2017-Mar-26 13:33N 26°06' W 080°07'1 1.0
2017-Mar-26 12:33N 26°05' W 080°07'1 1.0
2017-Mar-26 11:33N 26°06' W 080°07'1 0.5
2017-Mar-26 10:25N 26°06' W 080°07'3 3.7
2017-Mar-26 09:33N 26°06' W 080°04'0 0.1
2017-Mar-26 08:33N 26°06' W 080°04'3 2.9
2017-Mar-26 07:30N 26°06' W 080°07'0 0.4
2017-Mar-26 06:33N 26°06' W 080°07'0 0.1
2017-Mar-26 03:21N 26°06' W 080°07'1 0.7
2017-Mar-26 02:33N 26°06' W 080°07'1 0.5
2017-Mar-26 01:33N 26°06' W 080°06'1 0.9
2017-Mar-26 00:26N 26°06' W 080°07'2 2.3
2017-Mar-25 23:33N 26°06' W 080°05'0 0.4
2017-Mar-25 22:33N 26°06' W 080°06'1 0.5
2017-Mar-25 21:34N 26°05' W 080°05'0 0.2
2017-Mar-25 20:33N 26°05' W 080°05'2 1.7
2017-Mar-25 19:33N 26°05' W 080°07'1 0.6
2017-Mar-25 18:33N 26°06' W 080°07'1 0.7
2017-Mar-25 17:33N 26°05' W 080°07'0 0.2
2017-Mar-25 16:33N 26°06' W 080°07'1 0.5
2017-Mar-25 15:18N 26°06' W 080°07'1 1.1
2017-Mar-25 14:33N 26°05' W 080°07'0 0.1
2017-Mar-25 13:33N 26°05' W 080°07'0 0.2
2017-Mar-25 12:33N 26°05' W 080°07'0 0.2
2017-Mar-25 11:33N 26°06' W 080°07'0 0.1
2017-Mar-25 10:33N 26°06' W 080°07'1 0.5
2017-Mar-25 09:33N 26°05' W 080°07'0 0.3
2017-Mar-25 08:33N 26°05' W 080°07'0 0.4
2017-Mar-25 07:33N 26°05' W 080°07'1 0.6
2017-Mar-25 06:33N 26°06' W 080°07'1 1.0
2017-Mar-25 05:33N 26°06' W 080°06'1 0.8
2017-Mar-25 04:33N 26°05' W 080°07'1 0.1
2017-Mar-24 19:33N 26°06' W 080°07'1 0.7
2017-Mar-24 18:33N 26°06' W 080°06'1 1.1
2017-Mar-24 17:33N 26°06' W 080°05'2 1.6
2017-Mar-24 16:34N 26°06' W 080°07'0 0.1
2017-Mar-24 15:34N 26°06' W 080°07'0 0.2
2017-Mar-24 14:33N 26°05' W 080°07'1 1.2
2017-Mar-24 13:33N 26°05' W 080°06'2 0.7
2017-Mar-24 11:07N 26°06' W 080°07'1 1.7
2017-Mar-24 10:33N 26°05' W 080°07'0 0.2
2017-Mar-24 09:33N 26°05' W 080°07'1 0.2
2017-Mar-24 03:33N 26°06' W 080°06'1 1.4
2017-Mar-24 02:33N 26°06' W 080°07'0 0.3
2017-Mar-24 01:34N 26°06' W 080°07'1 0.4
2017-Mar-23 23:33N 26°06' W 080°07'0 0.0
2017-Mar-23 22:22N 26°06' W 080°07'5 5.8
2017-Mar-23 21:33N 26°07' W 080°02'5 5.0
2017-Mar-23 20:33N 26°04' W 080°07'1 1.4
2017-Mar-23 19:34N 26°06' W 080°07'1 1.4
2017-Mar-23 18:33N 26°06' W 080°06'2 1.8
2017-Mar-23 17:34N 26°06' W 080°04'3 3.3
2017-Mar-23 16:33N 26°05' W 080°07'0 0.2
2017-Mar-23 15:33N 26°05' W 080°07'0 0.3
2017-Mar-23 14:33N 26°06' W 080°07'0 0.1
2017-Mar-23 12:33N 26°06' W 080°07'0 0.0
2017-Mar-23 11:34N 26°06' W 080°07'1 0.5
2017-Mar-23 10:30N 26°06' W 080°07'0 0.0
2017-Mar-23 09:19N 26°06' W 080°07'0 0.0
2017-Mar-23 08:16N 26°06' W 080°07'0 0.0
2017-Mar-23 07:33N 26°06' W 080°07'0 0.0
2017-Mar-23 05:32N 26°06' W 080°07'0 0.0
2017-Mar-23 04:32N 26°06' W 080°07'0 0.0
2017-Mar-23 03:33N 26°06' W 080°07'0 0.0
2017-Mar-23 02:33N 26°06' W 080°07'0 0.0
2017-Mar-23 01:17N 26°06' W 080°07'0 0.0
2017-Mar-23 00:33N 26°06' W 080°07'0 0.0
2017-Mar-22 23:32N 26°06' W 080°07'0 0.0
2017-Mar-22 22:31N 26°06' W 080°07'0 0.0
2017-Mar-22 21:11N 26°06' W 080°07'0 0.0
2017-Mar-22 19:33N 26°06' W 080°07'0 0.0
2017-Mar-22 18:27N 26°06' W 080°07'0 0.0
2017-Mar-22 17:26N 26°06' W 080°07'0 0.0
2017-Mar-22 16:29N 26°06' W 080°07'0 0.0
2017-Mar-22 13:30N 26°06' W 080°07'0 0.0
2017-Mar-22 11:27N 26°06' W 080°07'2 2.0
2017-Mar-22 10:34N 26°04' W 080°07'2 2.3
2017-Mar-22 09:33N 26°06' W 080°05'1 0.7
2017-Mar-22 08:34N 26°06' W 080°06'1 0.8
2017-Mar-22 07:34N 26°06' W 080°05'2 2.1
2017-Mar-22 06:34N 26°05' W 080°07'0 0.0
2017-Mar-22 05:33N 26°05' W 080°07'1 0.9
2017-Mar-22 04:33N 26°06' W 080°06'1 0.1
2017-Mar-21 15:33N 26°06' W 080°07'0 0.0
2017-Mar-21 14:33N 26°06' W 080°07'0 0.0
2017-Mar-21 13:33N 26°06' W 080°07'0 0.0
2017-Mar-21 12:33N 26°06' W 080°07'2 1.0
2017-Mar-21 10:33N 26°05' W 080°05'2 1.9
2017-Mar-21 09:33N 26°05' W 080°03'4 3.4
2017-Mar-21 08:24N 26°06' W 080°07'0 0.0
2017-Mar-21 07:33N 26°06' W 080°07'0 0.0
2017-Mar-21 06:33N 26°06' W 080°07'0 0.0
2017-Mar-21 05:25N 26°06' W 080°07'1 0.9
2017-Mar-21 04:34N 26°05' W 080°07'2 1.5
2017-Mar-21 03:34N 26°05' W 080°05'0 0.0
2017-Mar-20 17:34N 26°05' W 080°05'2 1.7
2017-Mar-20 16:19N 26°06' W 080°07'1 0.7
2017-Mar-20 15:33N 26°06' W 080°07'3 3.0
2017-Mar-20 14:33N 26°05' W 080°04'  
Track history (hours):
 
Tides and Currents Weather Stations Pressure Air Temp Water Temp Dewpoint Dewpoint Depression Visibility Wind Speed Wind Dir Waves Ship Positions

Pilot No 5

Owner: P E P INC, FT LAUDERDALE, FL. More information available from US FCC via Universal Licensing System and Coast Guard Vessel Documentation Center.

Last reported at 2017-Mar-30 14:33 UTC. Time now 2017-Mar-30 14:50 UTC.
Position N 26°06' W 080°07'.

Length 6 m.

Type: Pilot. MMSI: 367015090.

Date/timePositionNaut miles runAvg speedWind from/ knotsBaromVisibWave heightAir tempDewpointWater temp
2017-Mar-30 14:33N 26°06' W 080°07'0 0.0
2017-Mar-30 13:33N 26°06' W 080°07'0 0.0
2017-Mar-30 12:09N 26°06' W 080°07'0 0.0
2017-Mar-30 11:12N 26°06' W 080°07'1 1.4
2017-Mar-30 10:33N 26°06' W 080°07'0 0.4
2017-Mar-30 09:33N 26°06' W 080°06'1 1.0
2017-Mar-30 08:33N 26°06' W 080°07'1 0.1
2017-Mar-29 23:33N 26°06' W 080°06'1 0.8
2017-Mar-29 22:33N 26°06' W 080°06'1 1.2
2017-Mar-29 21:33N 26°06' W 080°07'0 0.2
2017-Mar-29 20:33N 26°06' W 080°07'1 0.1
2017-Mar-29 14:03N 26°06' W 080°07'0 0.0
2017-Mar-29 13:32N 26°06' W 080°07'0 0.0
2017-Mar-29 11:33N 26°06' W 080°07'1 0.9
2017-Mar-29 10:34N 26°05' W 080°07'0 0.4
2017-Mar-29 09:33N 26°06' W 080°07'1 0.4
2017-Mar-29 08:14N 26°06' W 080°07'2 3.1
2017-Mar-29 07:34N 26°04' W 080°07'1 1.1
2017-Mar-29 06:33N 26°05' W 080°07'1 1.0
2017-Mar-29 05:31N 26°06' W 080°07'3 3.1
2017-Mar-29 04:34N 26°05' W 080°04'3 0.3
2017-Mar-28 17:08N 26°06' W 080°07'0 0.0
2017-Mar-28 16:33N 26°06' W 080°07'0 0.0
2017-Mar-28 11:08N 26°06' W 080°07'0 0.0
2017-Mar-28 04:04N 26°06' W 080°07'2 3.5
2017-Mar-28 03:34N 26°05' W 080°06'1 1.0
2017-Mar-28 02:33N 26°06' W 080°07'1 1.0
2017-Mar-28 01:34N 26°06' W 080°06'2 1.8
2017-Mar-28 00:33N 26°06' W 080°07'0 0.0
2017-Mar-27 23:33N 26°06' W 080°07'1 1.2
2017-Mar-27 22:33N 26°06' W 080°06'1 0.8
2017-Mar-27 21:33N 26°06' W 080°05'2 1.6
2017-Mar-27 20:33N 26°05' W 080°07'1 0.6
2017-Mar-27 19:33N 26°06' W 080°07'0 0.0
2017-Mar-27 16:33N 26°06' W 080°07'2 1.7
2017-Mar-27 15:33N 26°05' W 080°05'2 1.9
2017-Mar-27 14:33N 26°06' W 080°07'0 0.5
2017-Mar-27 13:34N 26°06' W 080°07'3 2.6
2017-Mar-27 12:33N 26°05' W 080°04'3 2.6
2017-Mar-27 11:33N 26°06' W 080°07'3 3.2
2017-Mar-27 10:33N 26°05' W 080°04'1 0.6
2017-Mar-27 09:33N 26°05' W 080°04'1 1.5
2017-Mar-27 08:34N 26°05' W 080°03'4 4.3
2017-Mar-27 07:33N 26°06' W 080°07'0 0.2
2017-Mar-27 06:33N 26°06' W 080°07'0 0.2
2017-Mar-27 05:33N 26°06' W 080°07'3 2.7
2017-Mar-27 04:33N 26°06' W 080°04'3 2.6
2017-Mar-27 03:33N 26°04' W 080°07'1 0.3
2017-Mar-26 22:33N 26°06' W 080°06'1 1.0
2017-Mar-26 21:33N 26°05' W 080°07'1 1.1
2017-Mar-26 20:33N 26°06' W 080°06'1 1.1
2017-Mar-26 19:33N 26°06' W 080°07'0 0.1
2017-Mar-26 18:23N 26°06' W 080°07'1 0.9
2017-Mar-26 17:33N 26°06' W 080°07'0 0.2
2017-Mar-26 16:33N 26°05' W 080°07'1 0.5
2017-Mar-26 15:33N 26°05' W 080°07'1 1.0
2017-Mar-26 14:18N 26°06' W 080°07'1 0.8
2017-Mar-26 13:33N 26°06' W 080°07'1 1.0
2017-Mar-26 12:33N 26°05' W 080°07'1 1.0
2017-Mar-26 11:33N 26°06' W 080°07'1 0.5
2017-Mar-26 10:25N 26°06' W 080°07'3 3.7
2017-Mar-26 09:33N 26°06' W 080°04'0 0.1
2017-Mar-26 08:33N 26°06' W 080°04'3 2.9
2017-Mar-26 07:30N 26°06' W 080°07'0 0.4
2017-Mar-26 06:33N 26°06' W 080°07'0 0.1
2017-Mar-26 03:21N 26°06' W 080°07'1 0.7
2017-Mar-26 02:33N 26°06' W 080°07'1 0.5
2017-Mar-26 01:33N 26°06' W 080°06'1 0.9
2017-Mar-26 00:26N 26°06' W 080°07'2 2.3
2017-Mar-25 23:33N 26°06' W 080°05'0 0.4
2017-Mar-25 22:33N 26°06' W 080°06'1 0.5
2017-Mar-25 21:34N 26°05' W 080°05'0 0.2
2017-Mar-25 20:33N 26°05' W 080°05'2 1.7
2017-Mar-25 19:33N 26°05' W 080°07'1 0.6
2017-Mar-25 18:33N 26°06' W 080°07'1 0.7
2017-Mar-25 17:33N 26°05' W 080°07'0 0.2
2017-Mar-25 16:33N 26°06' W 080°07'1 0.5
2017-Mar-25 15:18N 26°06' W 080°07'1 1.1
2017-Mar-25 14:33N 26°05' W 080°07'0 0.1
2017-Mar-25 13:33N 26°05' W 080°07'0 0.2
2017-Mar-25 12:33N 26°05' W 080°07'0 0.2
2017-Mar-25 11:33N 26°06' W 080°07'0 0.1
2017-Mar-25 10:33N 26°06' W 080°07'1 0.5
2017-Mar-25 09:33N 26°05' W 080°07'0 0.3
2017-Mar-25 08:33N 26°05' W 080°07'0 0.4
2017-Mar-25 07:33N 26°05' W 080°07'1 0.6
2017-Mar-25 06:33N 26°06' W 080°07'1 1.0
2017-Mar-25 05:33N 26°06' W 080°06'1 0.8
2017-Mar-25 04:33N 26°05' W 080°07'1 0.1
2017-Mar-24 19:33N 26°06' W 080°07'1 0.7
2017-Mar-24 18:33N 26°06' W 080°06'1 1.1
2017-Mar-24 17:33N 26°06' W 080°05'2 1.6
2017-Mar-24 16:34N 26°06' W 080°07'0 0.1
2017-Mar-24 15:34N 26°06' W 080°07'0 0.2
2017-Mar-24 14:33N 26°05' W 080°07'1 1.2
2017-Mar-24 13:33N 26°05' W 080°06'2 0.7
2017-Mar-24 11:07N 26°06' W 080°07'1 1.7
2017-Mar-24 10:33N 26°05' W 080°07'0 0.2
2017-Mar-24 09:33N 26°05' W 080°07'1 0.2
2017-Mar-24 03:33N 26°06' W 080°06'1 1.4
2017-Mar-24 02:33N 26°06' W 080°07'0 0.3
2017-Mar-24 01:34N 26°06' W 080°07'1 0.4
2017-Mar-23 23:33N 26°06' W 080°07'0 0.0
2017-Mar-23 22:22N 26°06' W 080°07'5 5.8
2017-Mar-23 21:33N 26°07' W 080°02'5 5.0
2017-Mar-23 20:33N 26°04' W 080°07'1 1.4
2017-Mar-23 19:34N 26°06' W 080°07'1 1.4
2017-Mar-23 18:33N 26°06' W 080°06'2 1.8
2017-Mar-23 17:34N 26°06' W 080°04'3 3.3
2017-Mar-23 16:33N 26°05' W 080°07'0 0.2
2017-Mar-23 15:33N 26°05' W 080°07'0 0.3
2017-Mar-23 14:33N 26°06' W 080°07'0 0.1
2017-Mar-23 12:33N 26°06' W 080°07'0 0.0
2017-Mar-23 11:34N 26°06' W 080°07'1 0.5
2017-Mar-23 10:30N 26°06' W 080°07'0 0.0
2017-Mar-23 09:19N 26°06' W 080°07'0 0.0
2017-Mar-23 08:16N 26°06' W 080°07'0 0.0
2017-Mar-23 07:33N 26°06' W 080°07'0 0.0
2017-Mar-23 05:32N 26°06' W 080°07'0 0.0
2017-Mar-23 04:32N 26°06' W 080°07'0 0.0
2017-Mar-23 03:33N 26°06' W 080°07'0 0.0
2017-Mar-23 02:33N 26°06' W 080°07'0 0.0
2017-Mar-23 01:17N 26°06' W 080°07'0 0.0
2017-Mar-23 00:33N 26°06' W 080°07'0 0.0
2017-Mar-22 23:32N 26°06' W 080°07'0 0.0
2017-Mar-22 22:31N 26°06' W 080°07'0 0.0
2017-Mar-22 21:11N 26°06' W 080°07'0 0.0
2017-Mar-22 19:33N 26°06' W 080°07'0 0.0
2017-Mar-22 18:27N 26°06' W 080°07'0 0.0
2017-Mar-22 17:26N 26°06' W 080°07'0 0.0
2017-Mar-22 16:29N 26°06' W 080°07'0 0.0
2017-Mar-22 13:30N 26°06' W 080°07'0 0.0
2017-Mar-22 11:27N 26°06' W 080°07'2 2.0
2017-Mar-22 10:34N 26°04' W 080°07'2 2.3
2017-Mar-22 09:33N 26°06' W 080°05'1 0.7
2017-Mar-22 08:34N 26°06' W 080°06'1 0.8
2017-Mar-22 07:34N 26°06' W 080°05'2 2.1
2017-Mar-22 06:34N 26°05' W 080°07'0 0.0
2017-Mar-22 05:33N 26°05' W 080°07'1 0.9
2017-Mar-22 04:33N 26°06' W 080°06'1 0.1
2017-Mar-21 15:33N 26°06' W 080°07'0 0.0
2017-Mar-21 14:33N 26°06' W 080°07'0 0.0
2017-Mar-21 13:33N 26°06' W 080°07'0 0.0
2017-Mar-21 12:33N 26°06' W 080°07'2 1.0
2017-Mar-21 10:33N 26°05' W 080°05'2 1.9
2017-Mar-21 09:33N 26°05' W 080°03'4 3.4
2017-Mar-21 08:24N 26°06' W 080°07'0 0.0
2017-Mar-21 07:33N 26°06' W 080°07'0 0.0
2017-Mar-21 06:33N 26°06' W 080°07'0 0.0
2017-Mar-21 05:25N 26°06' W 080°07'1 0.9
2017-Mar-21 04:34N 26°05' W 080°07'2 1.5
2017-Mar-21 03:34N 26°05' W 080°05'0 0.0
2017-Mar-20 17:34N 26°05' W 080°05'2 1.7
2017-Mar-20 16:19N 26°06' W 080°07'1 0.7
2017-Mar-20 15:33N 26°06' W 080°07'3 3.0
2017-Mar-20 14:33N 26°05' W 080°04'  

Dump ship's entire track history